KIIB

Details ICAO KIIB
Name INDEPENDENCE MUNI
Region United States
Timezone America/Chicago (UTC-6.0)
Plans Departing 1
Arriving 0
Stats Elevation 978 ft / 298 m (AMSL)
Location 42.453589° -91.947620°
Runways 1
Magnetic Variation 0.580° W
Sunrise 2017-12-11 13:28:52 UTC / 2017-12-11 07:28:52 Local
Sunset 2017-12-11 22:36:22 UTC / 2017-12-11 16:36:22 Local
Advertisement - Login to hide

Runways

ID Width Length Bearing (true) Bearing (mag) Surface Threshold Offset Overrun Length
17 75 ft / 23 m 4,005 ft / 1,221 m 179.44° 180.02° Concrete 0 ft / 0 m 0 ft / 0 m
35 75 ft / 23 m 4,005 ft / 1,221 m 359.44° 0.02° Concrete 0 ft / 0 m 0 ft / 0 m

Map

Weather


0- 5 10 15 20 25 30 35+ Temperature / ° C

Clouds and Precipitation
Forecast for 2017-12-11 18:00 UTC. Updated a few seconds ago

Ground ~20,000 ft ~40,000 ft Winds

METAR

KIIB 111715Z AUTO 00000KT 10SM SCT046 BKN070 OVC080 01/M03 A2969 RMK AO2 T00101030

TAF

Not found

Frequencies

Recorded 118.27 MHz AWOS 3
Approach 118.90 MHz WATERLOO APP/DEP
Unicom 122.80 MHz CTAF/UNICOM
Warning: Do not use this data for real-world aviation or navigation. No guarantee of current accuracy is given.